WetterOnline ( https://www.wetteronline.de )

Wetter aktuell Neukirchen

Aktuelles Wetter: Großer Arber (1446m)

6-stündlich | Neueste Meldungen
Ortszeit Temperatur Wetter
Do, 27.01. 1:00 -4.4° C bedeckt
Mi, 26.01. 19:00 -4.6° C Nebel
Mi, 26.01. 13:00 -3.2° C fast wolkenlos
Mi, 26.01. 7:00 -2.9° C wolkenlos
Mi, 26.01. 1:00 -1.6° C wolkenlos
Di, 25.01. 19:00 -1.9° C wolkenlos
Di, 25.01. 13:00 0.0° C wolkenlos
Di, 25.01. 7:00 -0.7° C wolkenlos
Ortszeit Temperatur Wetter
Do, 27.01. 4:00 -3.4° C bedeckt
Do, 27.01. 3:50 -3.4° C bedeckt
Do, 27.01. 3:40 -4.5° C bedeckt
Do, 27.01. 3:30 -3.3° C bedeckt
Do, 27.01. 3:20 -3.3° C bedeckt
Do, 27.01. 3:10 -3.5° C bedeckt
Do, 27.01. 3:00 -2.8° C bedeckt
Do, 27.01. 2:30 -3.6° C bedeckt
Do, 27.01. 2:00 -3.0° C bedeckt
Do, 27.01. 1:30 -4.4° C bedeckt
Do, 27.01. 1:00 -4.4° C bedeckt
Ortszeit Relative Feuchte Sichtweite
Do, 27.01. 1:00 66% >70 km
Mi, 26.01. 19:00 77% >70 km
Mi, 26.01. 13:00 67% 55 km
Mi, 26.01. 7:00 62% >70 km
Mi, 26.01. 1:00 54% >70 km
Di, 25.01. 19:00 71% >70 km
Di, 25.01. 13:00 71% 50 km
Di, 25.01. 7:00 71% >70 km
Ortszeit Relative Feuchte Sichtweite
Do, 27.01. 4:00 81% >70 km
Do, 27.01. 3:50 81% -
Do, 27.01. 3:40 85% -
Do, 27.01. 3:30 75% >70 km
Do, 27.01. 3:20 75% -
Do, 27.01. 3:10 81% -
Do, 27.01. 3:00 77% >70 km
Do, 27.01. 2:30 78% >70 km
Do, 27.01. 2:00 68% >70 km
Do, 27.01. 1:30 71% >70 km
Do, 27.01. 1:00 66% >70 km
Ortszeit Niederschlagsmenge Niederschlagsart
Do, 27.01. 1:00 0.0 l/m2 in 6 Std. -
Mi, 26.01. 19:00 0.1 l/m2 in 12 Std. Schnee
Mi, 26.01. 13:00 0.0 l/m2 in 6 Std. -
Mi, 26.01. 7:00 0.0 l/m2 in 12 Std. -
Mi, 26.01. 1:00 0.0 l/m2 in 6 Std. -
Di, 25.01. 19:00 0.0 l/m2 in 12 Std. -
Di, 25.01. 13:00 0.0 l/m2 in 6 Std. -
Di, 25.01. 7:00 0.0 l/m2 in 12 Std. -
Ortszeit Niederschlagsmenge Niederschlagsart
Do, 27.01. 4:00 0.0 l/m2 in 1 Std. -
Do, 27.01. 3:50 keine Meldung -
Do, 27.01. 3:40 keine Meldung -
Do, 27.01. 3:30 0.0 l/m2 in 1 Std. -
Do, 27.01. 3:20 keine Meldung -
Do, 27.01. 3:10 keine Meldung -
Do, 27.01. 3:00 0.0 l/m2 in 1 Std. -
Do, 27.01. 2:30 0.0 l/m2 in 1 Std. -
Do, 27.01. 2:00 0.0 l/m2 in 1 Std. -
Do, 27.01. 1:30 0.0 l/m2 in 1 Std. -
Do, 27.01. 1:00 0.0 l/m2 in 1 Std. -
Ortszeit Stärke Spitze Richtung
km/h Bft. km/h Grad Sektor
Do, 27.01. 1:00 31 5 50 290° W
Mi, 26.01. 19:00 25 4 43 270° W
Mi, 26.01. 13:00 28 4 41 290° W
Mi, 26.01. 7:00 30 5 39 290° W
Mi, 26.01. 1:00 26 4 48 300° NW
Di, 25.01. 19:00 32 5 43 300° NW
Di, 25.01. 13:00 24 4 35 300° NW
Di, 25.01. 7:00 28 4 33 310° NW
Ortszeit Stärke Spitze Richtung
km/h Bft. km/h Grad Sektor
Do, 27.01. 4:00 36 5 50 280° W
Do, 27.01. 3:50 36 5 - 280° W
Do, 27.01. 3:40 33 5 - 280° W
Do, 27.01. 3:30 31 5 46 280° W
Do, 27.01. 3:20 31 5 - 280° W
Do, 27.01. 3:10 33 5 - 280° W
Do, 27.01. 3:00 33 5 48 280° W
Do, 27.01. 2:30 30 5 44 270° W
Do, 27.01. 2:00 32 5 47 290° W
Do, 27.01. 1:30 32 5 47 290° W
Do, 27.01. 1:00 31 5 50 290° W
Ortszeit Untergrenze Bedeckung Gattung
total tief tief mittel hoch
Do, 27.01. 1:00 3600 m 8/8 8/8 - - -
Mi, 26.01. 19:00 5100 m 8/8 8/8 - - -
Mi, 26.01. 13:00 4800 m 1/8 1/8 - - -
Mi, 26.01. 7:00 - 0/8 0/8 - - -
Mi, 26.01. 1:00 - 0/8 0/8 - - -
Di, 25.01. 19:00 - 0/8 0/8 - - -
Di, 25.01. 13:00 - 0/8 0/8 - - -
Di, 25.01. 7:00 - 0/8 0/8 - - -
Ortszeit Bedeckungsgrad in Achtel und Wolkenuntergrenze
Do, 27.01. 4:00 8(3900m) 8(9000m)
Do, 27.01. 3:50 8(3900m) 8(9000m)
Do, 27.01. 3:40 8
Do, 27.01. 3:30 8(4200m) 8(9000m)
Do, 27.01. 3:20 8(4200m) 8(9000m)
Do, 27.01. 3:10 8
Do, 27.01. 3:00 8(4500m) 8(8700m)
Do, 27.01. 2:30 8(5100m)
Do, 27.01. 2:00 8(4800m) 8(6900m)
Do, 27.01. 1:30 4(4200m) 8(4800m)
Do, 27.01. 1:00 8(3600m) 8(6300m)
Ortszeit Stationsdruck (hPa) Tendenz (hPa in 3 Std.)
Do, 27.01. 1:00 859 - 0,6
Mi, 26.01. 19:00 860 0,0
Mi, 26.01. 13:00 860 - 0,5
Mi, 26.01. 7:00 860 - 0,4
Mi, 26.01. 1:00 861 - 0,5
Di, 25.01. 19:00 862 - 0,2
Di, 25.01. 13:00 863 - 0,3
Di, 25.01. 7:00 863 - 0,5
Ortszeit Stationsdruck (hPa) Tendenz (hPa in 3 Std.)
Do, 27.01. 4:00 858 - 0,7
Do, 27.01. 3:50 858 keine Meldung
Do, 27.01. 3:40 858 keine Meldung
Do, 27.01. 3:30 858 - 0,6
Do, 27.01. 3:20 858 keine Meldung
Do, 27.01. 3:10 858 keine Meldung
Do, 27.01. 3:00 858 - 0,2
Do, 27.01. 2:30 858 - 0,1
Do, 27.01. 2:00 858 0,0
Do, 27.01. 1:30 859 0,0
Do, 27.01. 1:00 859 - 0,6
Ortszeit Schneehöhe (cm)
Do, 27.01. 1:00 67
Mi, 26.01. 19:00 68
Mi, 26.01. 13:00 68
Mi, 26.01. 7:00 68
Mi, 26.01. 1:00 68
Di, 25.01. 19:00 68
Di, 25.01. 13:00 68
Di, 25.01. 7:00 68
Ortszeit Schneehöhe (cm)
Do, 27.01. 4:00 67
Do, 27.01. 3:50 67
Do, 27.01. 3:40 67
Do, 27.01. 3:30 67
Do, 27.01. 3:20 67
Do, 27.01. 3:10 67
Do, 27.01. 3:00 67
Do, 27.01. 2:30 67
Do, 27.01. 2:00 67
Do, 27.01. 1:30 67
Do, 27.01. 1:00 67
Link zu dieser Seite / Seite empfehlen

Das Wetter in ...